sensor_id;sensor_type;location;lat;lon;timestamp;pressure;altitude;pressure_sealevel;temperature;humidity
44872;BME280;30602;51.060;17.226;2022-07-23T00:02:42;101571.74;;;18.36;77.69
44872;BME280;30602;51.060;17.226;2022-07-23T00:05:58;101572.97;;;18.26;78.01
44872;BME280;30602;51.060;17.226;2022-07-23T00:13:23;101577.60;;;18.12;78.37
44872;BME280;30602;51.060;17.226;2022-07-23T00:17:05;101582.05;;;18.06;78.45
44872;BME280;30602;51.060;17.226;2022-07-23T00:20:37;101581.67;;;17.83;76.95
44872;BME280;30602;51.060;17.226;2022-07-23T00:24:11;101579.37;;;17.69;77.69
44872;BME280;30602;51.060;17.226;2022-07-23T00:27:54;101581.62;;;17.67;79.76
44872;BME280;30602;51.060;17.226;2022-07-23T00:31:26;101584.71;;;17.74;80.04
44872;BME280;30602;51.060;17.226;2022-07-23T00:35:22;101584.71;;;17.69;80.35
44872;BME280;30602;51.060;17.226;2022-07-23T00:38:50;101580.95;;;17.73;80.08
44872;BME280;30602;51.060;17.226;2022-07-23T00:42:35;101586.45;;;17.77;80.20
44872;BME280;30602;51.060;17.226;2022-07-23T00:45:47;101586.15;;;17.75;80.60
44872;BME280;30602;51.060;17.226;2022-07-23T00:49:16;101583.12;;;17.69;80.97
44872;BME280;30602;51.060;17.226;2022-07-23T00:52:45;101592.66;;;17.72;81.17
44872;BME280;30602;51.060;17.226;2022-07-23T00:56:17;101590.22;;;17.73;81.49
44872;BME280;30602;51.060;17.226;2022-07-23T00:59:32;101583.65;;;17.70;81.83
44872;BME280;30602;51.060;17.226;2022-07-23T01:03:08;101582.73;;;17.83;81.98
44872;BME280;30602;51.060;17.226;2022-07-23T01:06:29;101572.86;;;17.67;82.41
44872;BME280;30602;51.060;17.226;2022-07-23T01:10:47;101591.44;;;17.76;82.85
44872;BME280;30602;51.060;17.226;2022-07-23T01:14:12;101595.88;;;17.86;84.26
44872;BME280;30602;51.060;17.226;2022-07-23T01:21:48;101588.64;;;17.89;85.40
44872;BME280;30602;51.060;17.226;2022-07-23T01:25:48;101589.71;;;17.94;84.77
44872;BME280;30602;51.060;17.226;2022-07-23T01:29:30;101594.34;;;18.00;84.26
44872;BME280;30602;51.060;17.226;2022-07-23T01:33:03;101592.91;;;17.96;84.17
44872;BME280;30602;51.060;17.226;2022-07-23T01:36:44;101586.60;;;17.84;84.20
44872;BME280;30602;51.060;17.226;2022-07-23T01:40:21;101587.45;;;17.83;84.76
44872;BME280;30602;51.060;17.226;2022-07-23T01:43:41;101582.87;;;17.76;84.47
44872;BME280;30602;51.060;17.226;2022-07-23T01:48:24;101581.29;;;17.69;84.12
44872;BME280;30602;51.060;17.226;2022-07-23T01:51:57;101576.03;;;17.64;84.02
44872;BME280;30602;51.060;17.226;2022-07-23T01:55:30;101573.81;;;17.54;84.42
44872;BME280;30602;51.060;17.226;2022-07-23T01:59:06;101575.41;;;17.39;84.07
44872;BME280;30602;51.060;17.226;2022-07-23T02:02:45;101584.52;;;17.30;84.06
44872;BME280;30602;51.060;17.226;2022-07-23T02:06:16;101582.06;;;17.30;83.57
44872;BME280;30602;51.060;17.226;2022-07-23T02:10:08;101576.88;;;17.23;84.01
44872;BME280;30602;51.060;17.226;2022-07-23T02:13:40;101576.05;;;17.26;84.18
44872;BME280;30602;51.060;17.226;2022-07-23T02:17:10;101577.84;;;17.34;84.42
44872;BME280;30602;51.060;17.226;2022-07-23T02:20:32;101581.80;;;17.29;84.74
44872;BME280;30602;51.060;17.226;2022-07-23T02:24:26;101569.22;;;17.23;84.74
44872;BME280;30602;51.060;17.226;2022-07-23T02:28:05;101567.20;;;17.05;84.05
44872;BME280;30602;51.060;17.226;2022-07-23T02:31:46;101567.01;;;17.03;84.77
44872;BME280;30602;51.060;17.226;2022-07-23T02:35:16;101569.68;;;17.05;84.75
44872;BME280;30602;51.060;17.226;2022-07-23T02:39:04;101577.96;;;17.07;84.35
44872;BME280;30602;51.060;17.226;2022-07-23T02:42:40;101575.22;;;17.08;84.04
44872;BME280;30602;51.060;17.226;2022-07-23T02:46:13;101565.95;;;16.89;83.18
44872;BME280;30602;51.060;17.226;2022-07-23T02:49:51;101564.97;;;16.71;82.64
44872;BME280;30602;51.060;17.226;2022-07-23T02:53:23;101562.15;;;16.75;83.37
44872;BME280;30602;51.060;17.226;2022-07-23T03:00:32;101560.00;;;16.65;84.19
44872;BME280;30602;51.060;17.226;2022-07-23T03:04:21;101560.95;;;16.58;84.20
44872;BME280;30602;51.060;17.226;2022-07-23T03:07:33;101565.31;;;16.61;84.02
44872;BME280;30602;51.060;17.226;2022-07-23T03:10:55;101566.75;;;16.54;84.24
44872;BME280;30602;51.060;17.226;2022-07-23T03:14:04;101572.98;;;16.55;84.17
44872;BME280;30602;51.060;17.226;2022-07-23T03:17:49;101572.41;;;16.57;84.73
44872;BME280;30602;51.060;17.226;2022-07-23T03:21:05;101574.97;;;16.57;84.78
44872;BME280;30602;51.060;17.226;2022-07-23T03:24:57;101581.72;;;16.57;85.18
44872;BME280;30602;51.060;17.226;2022-07-23T03:28:30;101576.48;;;16.68;86.49
44872;BME280;30602;51.060;17.226;2022-07-23T03:31:43;101577.09;;;16.76;86.55
44872;BME280;30602;51.060;17.226;2022-07-23T03:35:19;101577.20;;;16.78;86.54
44872;BME280;30602;51.060;17.226;2022-07-23T03:38:42;101577.49;;;16.89;86.90
44872;BME280;30602;51.060;17.226;2022-07-23T03:41:57;101570.62;;;16.99;87.26
44872;BME280;30602;51.060;17.226;2022-07-23T03:45:37;101571.70;;;17.05;87.58
44872;BME280;30602;51.060;17.226;2022-07-23T03:49:07;101572.39;;;17.19;87.44
44872;BME280;30602;51.060;17.226;2022-07-23T03:52:28;101568.22;;;17.28;87.71
44872;BME280;30602;51.060;17.226;2022-07-23T03:55:41;101573.32;;;17.43;87.44
44872;BME280;30602;51.060;17.226;2022-07-23T03:59:08;101572.92;;;17.61;87.81
44872;BME280;30602;51.060;17.226;2022-07-23T04:02:21;101578.23;;;17.79;87.74
44872;BME280;30602;51.060;17.226;2022-07-23T04:06:16;101577.82;;;17.91;88.17
44872;BME280;30602;51.060;17.226;2022-07-23T04:09:51;101575.45;;;18.13;87.50
44872;BME280;30602;51.060;17.226;2022-07-23T04:13:38;101571.45;;;18.28;87.36
44872;BME280;30602;51.060;17.226;2022-07-23T04:17:09;101562.49;;;18.49;86.62
44872;BME280;30602;51.060;17.226;2022-07-23T04:20:44;101549.00;;;18.71;87.32
44872;BME280;30602;51.060;17.226;2022-07-23T04:23:57;101549.48;;;18.92;87.16
44872;BME280;30602;51.060;17.226;2022-07-23T04:27:10;101545.70;;;18.96;86.64
44872;BME280;30602;51.060;17.226;2022-07-23T04:30:23;101538.63;;;19.07;87.26
44872;BME280;30602;51.060;17.226;2022-07-23T04:33:35;101540.99;;;19.18;86.44
44872;BME280;30602;51.060;17.226;2022-07-23T04:36:46;101537.84;;;19.29;85.85
44872;BME280;30602;51.060;17.226;2022-07-23T04:40:12;101536.23;;;19.40;85.87
44872;BME280;30602;51.060;17.226;2022-07-23T04:43:25;101530.45;;;19.56;85.17
44872;BME280;30602;51.060;17.226;2022-07-23T04:46:39;101530.18;;;19.81;82.94
44872;BME280;30602;51.060;17.226;2022-07-23T04:50:16;101509.75;;;19.93;82.64
44872;BME280;30602;51.060;17.226;2022-07-23T04:53:56;101511.51;;;20.11;83.36
44872;BME280;30602;51.060;17.226;2022-07-23T04:57:21;101506.16;;;20.32;83.84
44872;BME280;30602;51.060;17.226;2022-07-23T05:01:17;101496.81;;;20.47;82.83
44872;BME280;30602;51.060;17.226;2022-07-23T05:05:07;101490.18;;;20.69;82.08
44872;BME280;30602;51.060;17.226;2022-07-23T05:08:40;101484.02;;;20.98;79.92
44872;BME280;30602;51.060;17.226;2022-07-23T05:12:21;101483.60;;;21.26;78.07
44872;BME280;30602;51.060;17.226;2022-07-23T05:15:34;101471.22;;;21.31;75.91
44872;BME280;30602;51.060;17.226;2022-07-23T05:19:07;101466.07;;;21.41;74.22
44872;BME280;30602;51.060;17.226;2022-07-23T05:22:44;101455.54;;;21.45;71.64
44872;BME280;30602;51.060;17.226;2022-07-23T05:26:42;101449.67;;;21.47;71.22
44872;BME280;30602;51.060;17.226;2022-07-23T05:29:58;101439.69;;;21.51;71.69
44872;BME280;30602;51.060;17.226;2022-07-23T05:33:33;101434.42;;;21.55;71.12
44872;BME280;30602;51.060;17.226;2022-07-23T05:37:25;101427.13;;;21.59;73.79
44872;BME280;30602;51.060;17.226;2022-07-23T05:40:32;101418.52;;;21.66;72.27
44872;BME280;30602;51.060;17.226;2022-07-23T05:43:59;101416.03;;;21.68;73.93
44872;BME280;30602;51.060;17.226;2022-07-23T05:51:01;101408.04;;;21.70;70.78
44872;BME280;30602;51.060;17.226;2022-07-23T05:55:24;101405.14;;;21.75;72.84
44872;BME280;30602;51.060;17.226;2022-07-23T05:58:51;101401.91;;;21.93;69.19
44872;BME280;30602;51.060;17.226;2022-07-23T06:02:01;101405.48;;;21.93;71.97
44872;BME280;30602;51.060;17.226;2022-07-23T06:05:19;101412.39;;;21.87;70.55
44872;BME280;30602;51.060;17.226;2022-07-23T06:12:32;101413.85;;;22.08;70.63
44872;BME280;30602;51.060;17.226;2022-07-23T06:15:59;101417.91;;;22.06;71.74
44872;BME280;30602;51.060;17.226;2022-07-23T06:19:28;101429.31;;;22.11;69.20
44872;BME280;30602;51.060;17.226;2022-07-23T06:22:57;101438.21;;;22.34;68.28
44872;BME280;30602;51.060;17.226;2022-07-23T06:26:55;101443.05;;;22.52;69.31
44872;BME280;30602;51.060;17.226;2022-07-23T06:30:37;101443.40;;;22.47;70.58
44872;BME280;30602;51.060;17.226;2022-07-23T06:34:21;101427.81;;;22.35;71.04
44872;BME280;30602;51.060;17.226;2022-07-23T06:38:10;101444.00;;;22.51;69.61
44872;BME280;30602;51.060;17.226;2022-07-23T06:41:28;101439.81;;;22.62;70.19
44872;BME280;30602;51.060;17.226;2022-07-23T06:44:42;101432.59;;;22.64;68.63
44872;BME280;30602;51.060;17.226;2022-07-23T06:48:11;101432.08;;;22.74;69.27
44872;BME280;30602;51.060;17.226;2022-07-23T06:51:47;101424.39;;;22.85;70.12
44872;BME280;30602;51.060;17.226;2022-07-23T06:55:16;101415.63;;;22.89;69.75
44872;BME280;30602;51.060;17.226;2022-07-23T06:58:40;101411.95;;;22.94;69.14
44872;BME280;30602;51.060;17.226;2022-07-23T07:01:48;101408.05;;;23.18;66.08
44872;BME280;30602;51.060;17.226;2022-07-23T07:05:13;101397.04;;;23.24;67.51
44872;BME280;30602;51.060;17.226;2022-07-23T07:08:56;101393.37;;;23.42;66.82
44872;BME280;30602;51.060;17.226;2022-07-23T07:12:36;101390.41;;;23.80;62.09
44872;BME280;30602;51.060;17.226;2022-07-23T07:17:05;101395.97;;;24.14;61.42
44872;BME280;30602;51.060;17.226;2022-07-23T07:20:34;101398.61;;;24.30;61.78
44872;BME280;30602;51.060;17.226;2022-07-23T07:24:29;101398.45;;;24.55;58.89
44872;BME280;30602;51.060;17.226;2022-07-23T07:27:56;101395.29;;;24.65;59.96
44872;BME280;30602;51.060;17.226;2022-07-23T07:31:08;101393.43;;;24.70;59.48
44872;BME280;30602;51.060;17.226;2022-07-23T07:34:38;101385.05;;;24.75;58.78
44872;BME280;30602;51.060;17.226;2022-07-23T07:41:56;101376.48;;;25.27;57.40
44872;BME280;30602;51.060;17.226;2022-07-23T07:45:22;101373.94;;;25.29;56.46
44872;BME280;30602;51.060;17.226;2022-07-23T07:48:52;101375.84;;;25.38;57.28
44872;BME280;30602;51.060;17.226;2022-07-23T07:52:28;101375.51;;;25.35;56.55
44872;BME280;30602;51.060;17.226;2022-07-23T07:56:24;101373.37;;;25.53;56.19
44872;BME280;30602;51.060;17.226;2022-07-23T08:08:10;101354.09;;;25.68;57.16
44872;BME280;30602;51.060;17.226;2022-07-23T08:11:20;101356.77;;;25.69;56.28
44872;BME280;30602;51.060;17.226;2022-07-23T08:14:35;101361.26;;;25.70;57.16
44872;BME280;30602;51.060;17.226;2022-07-23T08:18:02;101360.27;;;25.62;56.19
44872;BME280;30602;51.060;17.226;2022-07-23T08:21:13;101361.27;;;25.59;56.96
44872;BME280;30602;51.060;17.226;2022-07-23T08:24:46;101357.91;;;25.61;56.92
44872;BME280;30602;51.060;17.226;2022-07-23T08:28:22;101355.66;;;25.78;56.62
44872;BME280;30602;51.060;17.226;2022-07-23T08:31:52;101355.03;;;26.15;57.16
44872;BME280;30602;51.060;17.226;2022-07-23T08:35:26;101353.91;;;26.21;56.65
44872;BME280;30602;51.060;17.226;2022-07-23T08:39:12;101352.70;;;26.50;55.82
44872;BME280;30602;51.060;17.226;2022-07-23T08:42:42;101350.82;;;26.58;54.06
44872;BME280;30602;51.060;17.226;2022-07-23T08:45:58;101345.63;;;26.75;57.49
44872;BME280;30602;51.060;17.226;2022-07-23T08:49:21;101336.88;;;27.01;56.70
44872;BME280;30602;51.060;17.226;2022-07-23T08:52:48;101327.92;;;27.30;52.85
44872;BME280;30602;51.060;17.226;2022-07-23T08:56:07;101322.63;;;27.54;51.65
44872;BME280;30602;51.060;17.226;2022-07-23T08:59:42;101325.15;;;27.55;51.39
44872;BME280;30602;51.060;17.226;2022-07-23T09:03:22;101320.55;;;27.76;51.48
44872;BME280;30602;51.060;17.226;2022-07-23T09:06:45;101313.29;;;27.83;49.83
44872;BME280;30602;51.060;17.226;2022-07-23T09:13:51;101327.85;;;27.88;51.69
44872;BME280;30602;51.060;17.226;2022-07-23T09:17:40;101325.58;;;27.92;51.94
44872;BME280;30602;51.060;17.226;2022-07-23T09:24:33;101318.73;;;28.39;50.17
44872;BME280;30602;51.060;17.226;2022-07-23T09:32:03;101313.48;;;28.85;50.44
44872;BME280;30602;51.060;17.226;2022-07-23T09:39:47;101299.47;;;28.99;49.93
44872;BME280;30602;51.060;17.226;2022-07-23T09:47:15;101293.14;;;28.80;49.93
44872;BME280;30602;51.060;17.226;2022-07-23T09:51:30;101293.19;;;28.81;49.56
44872;BME280;30602;51.060;17.226;2022-07-23T09:55:19;101282.18;;;28.89;47.25
44872;BME280;30602;51.060;17.226;2022-07-23T09:58:50;101282.53;;;29.03;46.33
44872;BME280;30602;51.060;17.226;2022-07-23T10:06:58;101286.80;;;29.25;44.20
44872;BME280;30602;51.060;17.226;2022-07-23T10:10:42;101287.48;;;29.19;44.42
44872;BME280;30602;51.060;17.226;2022-07-23T10:13:54;101290.97;;;29.02;43.95
44872;BME280;30602;51.060;17.226;2022-07-23T10:17:50;101300.50;;;28.86;45.29
44872;BME280;30602;51.060;17.226;2022-07-23T10:21:34;101316.76;;;28.57;43.50
44872;BME280;30602;51.060;17.226;2022-07-23T10:25:12;101337.09;;;28.31;45.97
44872;BME280;30602;51.060;17.226;2022-07-23T10:40:09;101341.34;;;26.96;49.54
44872;BME280;30602;51.060;17.226;2022-07-23T10:44:19;101347.43;;;26.71;51.28
44872;BME280;30602;51.060;17.226;2022-07-23T10:47:51;101360.25;;;26.30;52.59
44872;BME280;30602;51.060;17.226;2022-07-23T10:55:41;101380.38;;;25.78;54.99
44872;BME280;30602;51.060;17.226;2022-07-23T10:59:24;101399.84;;;25.52;56.10
44872;BME280;30602;51.060;17.226;2022-07-23T11:02:36;101422.34;;;25.22;59.81
44872;BME280;30602;51.060;17.226;2022-07-23T11:05:52;101436.38;;;24.73;60.76
44872;BME280;30602;51.060;17.226;2022-07-23T11:09:30;101453.35;;;24.34;64.71
44872;BME280;30602;51.060;17.226;2022-07-23T11:16:47;101470.39;;;23.40;71.81
44872;BME280;30602;51.060;17.226;2022-07-23T11:20:43;101481.96;;;23.05;74.29
44872;BME280;30602;51.060;17.226;2022-07-23T11:24:15;101481.80;;;22.94;76.01
44872;BME280;30602;51.060;17.226;2022-07-23T11:27:45;101479.70;;;22.75;77.66
44872;BME280;30602;51.060;17.226;2022-07-23T11:31:18;101465.23;;;22.75;78.89
44872;BME280;30602;51.060;17.226;2022-07-23T11:34:31;101445.70;;;22.64;81.92
44872;BME280;30602;51.060;17.226;2022-07-23T11:38:12;101428.44;;;22.54;81.68
44872;BME280;30602;51.060;17.226;2022-07-23T11:41:53;101416.62;;;22.50;82.77
44872;BME280;30602;51.060;17.226;2022-07-23T11:45:09;101404.06;;;22.45;83.28
44872;BME280;30602;51.060;17.226;2022-07-23T11:48:25;101406.77;;;22.49;84.33
44872;BME280;30602;51.060;17.226;2022-07-23T11:51:41;101394.73;;;22.44;84.98
44872;BME280;30602;51.060;17.226;2022-07-23T11:55:29;101377.03;;;22.37;84.97
44872;BME280;30602;51.060;17.226;2022-07-23T11:58:36;101384.98;;;22.39;85.19
44872;BME280;30602;51.060;17.226;2022-07-23T12:02:48;101382.72;;;22.14;86.04
44872;BME280;30602;51.060;17.226;2022-07-23T12:06:09;101364.63;;;22.15;84.92
44872;BME280;30602;51.060;17.226;2022-07-23T12:09:21;101389.78;;;22.22;85.24
44872;BME280;30602;51.060;17.226;2022-07-23T12:20:51;101357.82;;;22.26;89.17
44872;BME280;30602;51.060;17.226;2022-07-23T12:24:07;101385.66;;;22.42;88.88
44872;BME280;30602;51.060;17.226;2022-07-23T12:28:01;101393.47;;;22.36;90.05
44872;BME280;30602;51.060;17.226;2022-07-23T12:31:43;101404.27;;;22.49;91.28
44872;BME280;30602;51.060;17.226;2022-07-23T12:35:09;101407.28;;;22.58;90.47
44872;BME280;30602;51.060;17.226;2022-07-23T12:38:48;101415.47;;;22.71;90.20
44872;BME280;30602;51.060;17.226;2022-07-23T12:42:00;101421.20;;;22.76;88.62
44872;BME280;30602;51.060;17.226;2022-07-23T12:49:28;101409.64;;;22.82;87.34
44872;BME280;30602;51.060;17.226;2022-07-23T12:53:09;101401.63;;;23.00;87.37
44872;BME280;30602;51.060;17.226;2022-07-23T12:57:02;101398.19;;;23.34;87.76
44872;BME280;30602;51.060;17.226;2022-07-23T13:04:50;101373.58;;;24.10;80.12
44872;BME280;30602;51.060;17.226;2022-07-23T13:08:26;101359.06;;;24.32;79.74
44872;BME280;30602;51.060;17.226;2022-07-23T13:12:15;101361.95;;;24.49;76.48
44872;BME280;30602;51.060;17.226;2022-07-23T13:15:56;101368.82;;;24.57;79.06
44872;BME280;30602;51.060;17.226;2022-07-23T13:19:07;101374.62;;;24.54;75.33
44872;BME280;30602;51.060;17.226;2022-07-23T13:22:16;101370.90;;;24.91;76.54
44872;BME280;30602;51.060;17.226;2022-07-23T13:25:54;101378.80;;;24.66;74.17
44872;BME280;30602;51.060;17.226;2022-07-23T13:29:23;101373.95;;;25.06;75.90
44872;BME280;30602;51.060;17.226;2022-07-23T13:32:32;101370.86;;;25.10;73.25
44872;BME280;30602;51.060;17.226;2022-07-23T13:36:03;101372.85;;;25.20;74.77
44872;BME280;30602;51.060;17.226;2022-07-23T13:39:21;101367.83;;;25.24;75.04
44872;BME280;30602;51.060;17.226;2022-07-23T13:43:02;101376.37;;;25.01;73.53
44872;BME280;30602;51.060;17.226;2022-07-23T13:46:14;101369.40;;;25.22;72.68
44872;BME280;30602;51.060;17.226;2022-07-23T13:49:32;101362.99;;;25.24;72.97
44872;BME280;30602;51.060;17.226;2022-07-23T13:53:06;101366.73;;;25.27;75.11
44872;BME280;30602;51.060;17.226;2022-07-23T13:56:37;101367.23;;;25.24;75.74
44872;BME280;30602;51.060;17.226;2022-07-23T13:59:44;101376.29;;;25.38;74.34
44872;BME280;30602;51.060;17.226;2022-07-23T14:03:11;101372.34;;;25.36;71.13
44872;BME280;30602;51.060;17.226;2022-07-23T14:06:55;101358.29;;;25.51;70.28
44872;BME280;30602;51.060;17.226;2022-07-23T14:14:16;101352.50;;;26.00;71.10
44872;BME280;30602;51.060;17.226;2022-07-23T14:17:40;101346.31;;;25.97;64.82
44872;BME280;30602;51.060;17.226;2022-07-23T14:20:51;101348.48;;;25.95;69.69
44872;BME280;30602;51.060;17.226;2022-07-23T14:24:20;101347.01;;;25.97;71.48
44872;BME280;30602;51.060;17.226;2022-07-23T14:27:56;101343.29;;;25.91;71.10
44872;BME280;30602;51.060;17.226;2022-07-23T14:31:08;101350.19;;;25.85;69.24
44872;BME280;30602;51.060;17.226;2022-07-23T14:34:16;101351.63;;;25.91;71.29
44872;BME280;30602;51.060;17.226;2022-07-23T14:37:46;101349.09;;;25.91;66.50
44872;BME280;30602;51.060;17.226;2022-07-23T14:41:18;101351.59;;;25.96;65.26
44872;BME280;30602;51.060;17.226;2022-07-23T14:45:01;101353.82;;;25.92;68.61
44872;BME280;30602;51.060;17.226;2022-07-23T14:48:31;101362.70;;;25.77;67.17
44872;BME280;30602;51.060;17.226;2022-07-23T14:52:01;101356.80;;;25.71;68.61
44872;BME280;30602;51.060;17.226;2022-07-23T14:55:42;101347.59;;;25.63;72.26
44872;BME280;30602;51.060;17.226;2022-07-23T14:59:16;101347.44;;;25.53;68.17
44872;BME280;30602;51.060;17.226;2022-07-23T15:02:24;101346.58;;;25.55;68.38
44872;BME280;30602;51.060;17.226;2022-07-23T15:05:39;101349.08;;;25.45;71.85
44872;BME280;30602;51.060;17.226;2022-07-23T15:08:47;101354.12;;;25.27;70.20
44872;BME280;30602;51.060;17.226;2022-07-23T15:11:58;101345.31;;;25.23;71.23
44872;BME280;30602;51.060;17.226;2022-07-23T15:15:07;101337.48;;;25.17;73.04
44872;BME280;30602;51.060;17.226;2022-07-23T15:18:30;101339.55;;;25.03;74.72
44872;BME280;30602;51.060;17.226;2022-07-23T15:26:06;101348.71;;;25.08;75.50
44872;BME280;30602;51.060;17.226;2022-07-23T15:29:53;101347.84;;;25.13;75.49
44872;BME280;30602;51.060;17.226;2022-07-23T15:33:39;101345.84;;;25.10;73.95
44872;BME280;30602;51.060;17.226;2022-07-23T15:37:23;101362.09;;;25.07;72.27
44872;BME280;30602;51.060;17.226;2022-07-23T15:40:35;101374.38;;;25.12;72.01
44872;BME280;30602;51.060;17.226;2022-07-23T15:44:03;101384.10;;;25.16;73.83
44872;BME280;30602;51.060;17.226;2022-07-23T15:47:31;101394.47;;;25.23;71.30
44872;BME280;30602;51.060;17.226;2022-07-23T15:50:46;101406.65;;;25.37;70.17
44872;BME280;30602;51.060;17.226;2022-07-23T15:54:24;101398.72;;;25.34;69.73
44872;BME280;30602;51.060;17.226;2022-07-23T15:57:35;101389.98;;;25.33;67.80
44872;BME280;30602;51.060;17.226;2022-07-23T16:01:16;101384.40;;;25.31;68.36
44872;BME280;30602;51.060;17.226;2022-07-23T16:05:01;101395.77;;;25.27;66.22
44872;BME280;30602;51.060;17.226;2022-07-23T16:08:11;101400.49;;;25.32;66.77
44872;BME280;30602;51.060;17.226;2022-07-23T16:11:21;101409.94;;;25.35;66.69
44872;BME280;30602;51.060;17.226;2022-07-23T16:14:31;101404.79;;;25.27;63.81
44872;BME280;30602;51.060;17.226;2022-07-23T16:18:13;101414.52;;;25.20;64.10
44872;BME280;30602;51.060;17.226;2022-07-23T16:21:48;101407.94;;;25.09;64.37
44872;BME280;30602;51.060;17.226;2022-07-23T16:25:20;101399.22;;;25.00;66.72
44872;BME280;30602;51.060;17.226;2022-07-23T16:28:40;101410.48;;;24.79;66.38
44872;BME280;30602;51.060;17.226;2022-07-23T16:31:55;101420.18;;;24.71;68.98
44872;BME280;30602;51.060;17.226;2022-07-23T16:36:10;101429.84;;;24.59;68.80
44872;BME280;30602;51.060;17.226;2022-07-23T16:39:33;101431.68;;;24.52;69.85
44872;BME280;30602;51.060;17.226;2022-07-23T16:43:12;101428.33;;;24.47;72.80
44872;BME280;30602;51.060;17.226;2022-07-23T16:46:42;101432.59;;;24.44;70.19
44872;BME280;30602;51.060;17.226;2022-07-23T16:50:37;101428.04;;;24.34;70.43
44872;BME280;30602;51.060;17.226;2022-07-23T16:54:01;101425.87;;;24.34;69.43
44872;BME280;30602;51.060;17.226;2022-07-23T16:57:24;101421.53;;;24.37;68.38
44872;BME280;30602;51.060;17.226;2022-07-23T17:05:00;101422.39;;;24.54;68.02
44872;BME280;30602;51.060;17.226;2022-07-23T17:08:35;101425.61;;;24.56;66.57
44872;BME280;30602;51.060;17.226;2022-07-23T17:12:07;101430.80;;;24.52;67.02
44872;BME280;30602;51.060;17.226;2022-07-23T17:15:30;101426.70;;;24.55;65.54
44872;BME280;30602;51.060;17.226;2022-07-23T17:18:48;101430.28;;;24.62;64.63
44872;BME280;30602;51.060;17.226;2022-07-23T17:22:28;101436.40;;;24.76;63.94
44872;BME280;30602;51.060;17.226;2022-07-23T17:25:52;101443.12;;;24.89;63.14
44872;BME280;30602;51.060;17.226;2022-07-23T17:29:38;101443.87;;;24.95;63.46
44872;BME280;30602;51.060;17.226;2022-07-23T17:33:13;101447.23;;;24.87;63.34
44872;BME280;30602;51.060;17.226;2022-07-23T17:36:20;101448.19;;;24.84;64.17
44872;BME280;30602;51.060;17.226;2022-07-23T17:39:54;101456.38;;;24.64;63.79
44872;BME280;30602;51.060;17.226;2022-07-23T17:43:36;101465.30;;;24.54;64.64
44872;BME280;30602;51.060;17.226;2022-07-23T17:46:45;101467.72;;;24.44;63.85
44872;BME280;30602;51.060;17.226;2022-07-23T17:49:56;101467.27;;;24.33;64.58
44872;BME280;30602;51.060;17.226;2022-07-23T17:53:19;101472.83;;;24.35;64.77
44872;BME280;30602;51.060;17.226;2022-07-23T17:57:15;101475.91;;;24.24;65.04
44872;BME280;30602;51.060;17.226;2022-07-23T18:00:56;101476.40;;;24.07;64.52
44872;BME280;30602;51.060;17.226;2022-07-23T18:08:41;101486.12;;;23.90;64.51
44872;BME280;30602;51.060;17.226;2022-07-23T18:12:24;101490.69;;;23.93;64.77
44872;BME280;30602;51.060;17.226;2022-07-23T18:15:41;101493.80;;;23.83;64.70
44872;BME280;30602;51.060;17.226;2022-07-23T18:19:02;101497.66;;;23.89;65.15
44872;BME280;30602;51.060;17.226;2022-07-23T18:26:35;101511.43;;;23.64;65.04
44872;BME280;30602;51.060;17.226;2022-07-23T18:30:09;101517.59;;;23.59;65.15
44872;BME280;30602;51.060;17.226;2022-07-23T18:33:35;101524.87;;;23.56;64.67
44872;BME280;30602;51.060;17.226;2022-07-23T18:37:14;101530.22;;;23.61;64.55
44872;BME280;30602;51.060;17.226;2022-07-23T18:40:47;101545.49;;;23.55;65.11
44872;BME280;30602;51.060;17.226;2022-07-23T18:43:57;101550.87;;;23.46;65.33
44872;BME280;30602;51.060;17.226;2022-07-23T18:48:04;101559.44;;;23.33;66.76
44872;BME280;30602;51.060;17.226;2022-07-23T18:51:17;101569.20;;;23.17;67.61
44872;BME280;30602;51.060;17.226;2022-07-23T18:55:23;101567.70;;;23.10;68.34
44872;BME280;30602;51.060;17.226;2022-07-23T18:58:31;101570.95;;;23.05;68.75
44872;BME280;30602;51.060;17.226;2022-07-23T19:02:04;101582.01;;;22.93;69.30
44872;BME280;30602;51.060;17.226;2022-07-23T19:05:35;101592.13;;;22.92;69.52
44872;BME280;30602;51.060;17.226;2022-07-23T19:09:43;101595.73;;;22.80;70.02
44872;BME280;30602;51.060;17.226;2022-07-23T19:13:08;101610.77;;;22.66;70.71
44872;BME280;30602;51.060;17.226;2022-07-23T19:16:42;101618.99;;;22.61;70.95
44872;BME280;30602;51.060;17.226;2022-07-23T19:20:11;101628.07;;;22.53;71.25
44872;BME280;30602;51.060;17.226;2022-07-23T19:23:19;101628.77;;;22.50;71.43
44872;BME280;30602;51.060;17.226;2022-07-23T19:26:55;101627.81;;;22.47;71.60
44872;BME280;30602;51.060;17.226;2022-07-23T19:30:23;101630.80;;;22.47;71.35
44872;BME280;30602;51.060;17.226;2022-07-23T19:33:53;101637.63;;;22.36;71.80
44872;BME280;30602;51.060;17.226;2022-07-23T19:37:15;101638.09;;;22.26;71.80
44872;BME280;30602;51.060;17.226;2022-07-23T19:40:43;101639.27;;;22.10;72.15
44872;BME280;30602;51.060;17.226;2022-07-23T19:43:50;101642.06;;;21.98;72.44
44872;BME280;30602;51.060;17.226;2022-07-23T19:47:23;101643.75;;;21.97;72.42
44872;BME280;30602;51.060;17.226;2022-07-23T19:50:34;101651.99;;;21.91;72.98
44872;BME280;30602;51.060;17.226;2022-07-23T19:54:04;101659.66;;;21.81;72.77
44872;BME280;30602;51.060;17.226;2022-07-23T19:57:24;101661.45;;;21.70;73.55
44872;BME280;30602;51.060;17.226;2022-07-23T20:00:53;101663.93;;;21.63;74.13